sensor_id;sensor_type;location;lat;lon;timestamp;temperature;humidity
37281;DHT22;23169;41.804;12.596;2023-05-10T00:00:33;18.60;1.00
37281;DHT22;23169;41.804;12.596;2023-05-10T00:03:02;18.60;1.00
37281;DHT22;23169;41.804;12.596;2023-05-10T00:05:33;18.70;1.00
37281;DHT22;23169;41.804;12.596;2023-05-10T00:08:02;18.70;1.00
37281;DHT22;23169;41.804;12.596;2023-05-10T00:10:31;18.70;1.00
37281;DHT22;23169;41.804;12.596;2023-05-10T00:12:59;18.70;1.00
37281;DHT22;23169;41.804;12.596;2023-05-10T00:15:29;18.70;1.00
37281;DHT22;23169;41.804;12.596;2023-05-10T00:18:01;18.80;1.00
37281;DHT22;23169;41.804;12.596;2023-05-10T00:20:31;18.80;1.00
37281;DHT22;23169;41.804;12.596;2023-05-10T00:23:00;18.70;1.00
37281;DHT22;23169;41.804;12.596;2023-05-10T00:25:30;18.70;1.00
37281;DHT22;23169;41.804;12.596;2023-05-10T00:27:58;18.70;1.00
37281;DHT22;23169;41.804;12.596;2023-05-10T00:30:30;18.70;1.00
37281;DHT22;23169;41.804;12.596;2023-05-10T00:35:30;18.70;1.00
37281;DHT22;23169;41.804;12.596;2023-05-10T00:37:58;18.60;1.00
37281;DHT22;23169;41.804;12.596;2023-05-10T00:40:29;18.70;1.00
37281;DHT22;23169;41.804;12.596;2023-05-10T00:42:59;18.70;1.00
37281;DHT22;23169;41.804;12.596;2023-05-10T00:45:33;18.80;1.00
37281;DHT22;23169;41.804;12.596;2023-05-10T00:48:03;18.90;1.00
37281;DHT22;23169;41.804;12.596;2023-05-10T00:50:34;18.90;1.00
37281;DHT22;23169;41.804;12.596;2023-05-10T00:53:03;18.90;1.00
37281;DHT22;23169;41.804;12.596;2023-05-10T00:55:34;18.80;1.00
37281;DHT22;23169;41.804;12.596;2023-05-10T00:58:04;18.70;1.00
37281;DHT22;23169;41.804;12.596;2023-05-10T01:00:35;18.60;1.00
37281;DHT22;23169;41.804;12.596;2023-05-10T01:03:06;18.60;1.00
37281;DHT22;23169;41.804;12.596;2023-05-10T01:05:35;18.50;1.00
37281;DHT22;23169;41.804;12.596;2023-05-10T01:08:04;18.50;1.00
37281;DHT22;23169;41.804;12.596;2023-05-10T01:13:03;18.60;1.00
37281;DHT22;23169;41.804;12.596;2023-05-10T01:15:33;18.70;1.00
37281;DHT22;23169;41.804;12.596;2023-05-10T01:18:03;18.80;1.00
37281;DHT22;23169;41.804;12.596;2023-05-10T01:20:41;18.80;1.00
37281;DHT22;23169;41.804;12.596;2023-05-10T01:34:25;18.70;1.00
37281;DHT22;23169;41.804;12.596;2023-05-10T01:37:02;18.70;1.00
37281;DHT22;23169;41.804;12.596;2023-05-10T01:39:49;18.60;1.00
37281;DHT22;23169;41.804;12.596;2023-05-10T01:42:36;18.60;1.00
37281;DHT22;23169;41.804;12.596;2023-05-10T01:47:54;18.60;1.00
37281;DHT22;23169;41.804;12.596;2023-05-10T01:50:30;18.50;1.00
37281;DHT22;23169;41.804;12.596;2023-05-10T01:53:00;18.50;1.00
37281;DHT22;23169;41.804;12.596;2023-05-10T01:55:32;18.50;1.00
37281;DHT22;23169;41.804;12.596;2023-05-10T01:58:07;18.50;1.00
37281;DHT22;23169;41.804;12.596;2023-05-10T02:00:40;18.40;1.00
37281;DHT22;23169;41.804;12.596;2023-05-10T02:03:12;18.40;1.00
37281;DHT22;23169;41.804;12.596;2023-05-10T02:05:43;18.40;1.00
37281;DHT22;23169;41.804;12.596;2023-05-10T02:08:14;18.40;1.00
37281;DHT22;23169;41.804;12.596;2023-05-10T02:10:45;18.40;1.00
37281;DHT22;23169;41.804;12.596;2023-05-10T02:13:16;18.40;1.00
37281;DHT22;23169;41.804;12.596;2023-05-10T02:15:48;18.40;1.00
37281;DHT22;23169;41.804;12.596;2023-05-10T02:18:18;18.40;1.00
37281;DHT22;23169;41.804;12.596;2023-05-10T02:20:47;18.30;1.00
37281;DHT22;23169;41.804;12.596;2023-05-10T02:23:17;18.30;1.00
37281;DHT22;23169;41.804;12.596;2023-05-10T02:25:47;18.30;1.00
37281;DHT22;23169;41.804;12.596;2023-05-10T02:28:17;18.30;1.00
37281;DHT22;23169;41.804;12.596;2023-05-10T02:30:47;18.30;1.00
37281;DHT22;23169;41.804;12.596;2023-05-10T02:33:16;18.30;1.00
37281;DHT22;23169;41.804;12.596;2023-05-10T02:35:46;18.30;1.00
37281;DHT22;23169;41.804;12.596;2023-05-10T02:38:15;18.20;1.00
37281;DHT22;23169;41.804;12.596;2023-05-10T02:40:46;18.20;1.00
37281;DHT22;23169;41.804;12.596;2023-05-10T02:43:18;18.20;1.00
37281;DHT22;23169;41.804;12.596;2023-05-10T02:45:48;18.20;1.00
37281;DHT22;23169;41.804;12.596;2023-05-10T02:48:17;18.20;1.00
37281;DHT22;23169;41.804;12.596;2023-05-10T02:50:46;18.20;1.00
37281;DHT22;23169;41.804;12.596;2023-05-10T02:53:23;18.20;1.00
37281;DHT22;23169;41.804;12.596;2023-05-10T02:55:54;18.20;1.00
37281;DHT22;23169;41.804;12.596;2023-05-10T02:58:25;18.20;1.00
37281;DHT22;23169;41.804;12.596;2023-05-10T03:00:54;18.20;1.00
37281;DHT22;23169;41.804;12.596;2023-05-10T03:03:25;18.20;1.00
37281;DHT22;23169;41.804;12.596;2023-05-10T03:05:54;18.20;1.00
37281;DHT22;23169;41.804;12.596;2023-05-10T03:08:24;18.20;1.00
37281;DHT22;23169;41.804;12.596;2023-05-10T03:11:09;18.20;1.00
37281;DHT22;23169;41.804;12.596;2023-05-10T03:17:04;18.40;1.00
37281;DHT22;23169;41.804;12.596;2023-05-10T03:19:39;17.20;1.00
37281;DHT22;23169;41.804;12.596;2023-05-10T03:22:11;18.50;1.00
37281;DHT22;23169;41.804;12.596;2023-05-10T03:24:43;18.40;1.00
37281;DHT22;23169;41.804;12.596;2023-05-10T03:27:14;18.30;1.00
37281;DHT22;23169;41.804;12.596;2023-05-10T03:29:44;18.30;1.00
37281;DHT22;23169;41.804;12.596;2023-05-10T03:32:14;18.30;1.00
37281;DHT22;23169;41.804;12.596;2023-05-10T03:34:43;18.20;1.00
37281;DHT22;23169;41.804;12.596;2023-05-10T03:37:11;18.00;1.00
37281;DHT22;23169;41.804;12.596;2023-05-10T03:39:41;17.90;1.00
37281;DHT22;23169;41.804;12.596;2023-05-10T03:42:10;17.80;1.00
37281;DHT22;23169;41.804;12.596;2023-05-10T03:44:40;17.80;1.00
37281;DHT22;23169;41.804;12.596;2023-05-10T03:47:09;17.70;1.00
37281;DHT22;23169;41.804;12.596;2023-05-10T03:49:38;17.70;1.00
37281;DHT22;23169;41.804;12.596;2023-05-10T03:52:06;17.60;1.00
37281;DHT22;23169;41.804;12.596;2023-05-10T03:54:39;17.60;1.00
37281;DHT22;23169;41.804;12.596;2023-05-10T03:57:08;17.50;1.00
37281;DHT22;23169;41.804;12.596;2023-05-10T03:59:38;17.50;1.00
37281;DHT22;23169;41.804;12.596;2023-05-10T04:02:06;17.50;1.00
37281;DHT22;23169;41.804;12.596;2023-05-10T04:04:35;17.50;1.00
37281;DHT22;23169;41.804;12.596;2023-05-10T04:07:04;17.50;1.00
37281;DHT22;23169;41.804;12.596;2023-05-10T04:09:32;17.50;1.00
37281;DHT22;23169;41.804;12.596;2023-05-10T04:12:01;17.50;1.00
37281;DHT22;23169;41.804;12.596;2023-05-10T04:14:30;17.60;1.00
37281;DHT22;23169;41.804;12.596;2023-05-10T04:17:01;17.60;1.00
37281;DHT22;23169;41.804;12.596;2023-05-10T04:19:31;17.60;1.00
37281;DHT22;23169;41.804;12.596;2023-05-10T04:22:02;17.50;1.00
37281;DHT22;23169;41.804;12.596;2023-05-10T04:24:31;17.50;1.00
37281;DHT22;23169;41.804;12.596;2023-05-10T04:27:00;17.40;1.00
37281;DHT22;23169;41.804;12.596;2023-05-10T04:29:29;17.40;1.00
37281;DHT22;23169;41.804;12.596;2023-05-10T04:31:58;17.40;1.00
37281;DHT22;23169;41.804;12.596;2023-05-10T04:34:27;17.30;1.00
37281;DHT22;23169;41.804;12.596;2023-05-10T04:36:55;17.20;1.00
37281;DHT22;23169;41.804;12.596;2023-05-10T04:39:24;17.20;1.00
37281;DHT22;23169;41.804;12.596;2023-05-10T04:44:21;17.20;1.00
37281;DHT22;23169;41.804;12.596;2023-05-10T04:46:50;17.20;1.00
37281;DHT22;23169;41.804;12.596;2023-05-10T04:49:18;17.30;1.00
37281;DHT22;23169;41.804;12.596;2023-05-10T04:51:48;17.40;1.00
37281;DHT22;23169;41.804;12.596;2023-05-10T04:54:16;17.50;1.00
37281;DHT22;23169;41.804;12.596;2023-05-10T04:56:45;17.60;1.00
37281;DHT22;23169;41.804;12.596;2023-05-10T04:59:13;17.60;1.00
37281;DHT22;23169;41.804;12.596;2023-05-10T05:01:42;17.50;1.00
37281;DHT22;23169;41.804;12.596;2023-05-10T05:04:11;17.50;1.00
37281;DHT22;23169;41.804;12.596;2023-05-10T05:06:40;17.40;1.00
37281;DHT22;23169;41.804;12.596;2023-05-10T05:09:08;17.40;1.00
37281;DHT22;23169;41.804;12.596;2023-05-10T05:11:39;17.40;1.00
37281;DHT22;23169;41.804;12.596;2023-05-10T05:14:08;17.30;1.00
37281;DHT22;23169;41.804;12.596;2023-05-10T05:16:37;17.20;1.00
37281;DHT22;23169;41.804;12.596;2023-05-10T05:19:06;17.20;1.00
37281;DHT22;23169;41.804;12.596;2023-05-10T05:21:35;17.20;1.80
37281;DHT22;23169;41.804;12.596;2023-05-10T05:24:04;17.20;1.00
37281;DHT22;23169;41.804;12.596;2023-05-10T05:26:33;17.20;1.00
37281;DHT22;23169;41.804;12.596;2023-05-10T05:29:01;17.40;1.00
37281;DHT22;23169;41.804;12.596;2023-05-10T05:31:30;17.30;1.00
37281;DHT22;23169;41.804;12.596;2023-05-10T05:33:59;17.80;1.00
37281;DHT22;23169;41.804;12.596;2023-05-10T05:36:29;17.30;1.00
37281;DHT22;23169;41.804;12.596;2023-05-10T05:38:59;17.20;1.00
37281;DHT22;23169;41.804;12.596;2023-05-10T05:43:57;17.40;1.00
37281;DHT22;23169;41.804;12.596;2023-05-10T05:46:27;17.40;1.00
37281;DHT22;23169;41.804;12.596;2023-05-10T05:48:55;17.60;1.00
37281;DHT22;23169;41.804;12.596;2023-05-10T05:51:24;17.70;1.00
37281;DHT22;23169;41.804;12.596;2023-05-10T05:53:53;17.80;1.00
37281;DHT22;23169;41.804;12.596;2023-05-10T05:56:21;17.90;1.00
37281;DHT22;23169;41.804;12.596;2023-05-10T05:58:52;18.00;1.00
37281;DHT22;23169;41.804;12.596;2023-05-10T06:01:21;18.00;1.00
37281;DHT22;23169;41.804;12.596;2023-05-10T06:03:49;17.90;1.00
37281;DHT22;23169;41.804;12.596;2023-05-10T06:06:18;17.60;2.50
37281;DHT22;23169;41.804;12.596;2023-05-10T06:08:47;17.30;6.40
37281;DHT22;23169;41.804;12.596;2023-05-10T06:11:15;17.00;17.70
37281;DHT22;23169;41.804;12.596;2023-05-10T06:13:47;16.80;30.90
37281;DHT22;23169;41.804;12.596;2023-05-10T06:16:15;16.70;51.20
37281;DHT22;23169;41.804;12.596;2023-05-10T06:18:47;16.50;85.20
37281;DHT22;23169;41.804;12.596;2023-05-10T06:21:16;16.50;92.20
37281;DHT22;23169;41.804;12.596;2023-05-10T06:23:45;16.40;97.50
37281;DHT22;23169;41.804;12.596;2023-05-10T06:26:14;16.30;99.90
37281;DHT22;23169;41.804;12.596;2023-05-10T06:28:43;16.30;99.90
37281;DHT22;23169;41.804;12.596;2023-05-10T06:31:13;16.30;99.90
37281;DHT22;23169;41.804;12.596;2023-05-10T06:33:41;16.30;99.90
37281;DHT22;23169;41.804;12.596;2023-05-10T06:36:10;16.20;99.90
37281;DHT22;23169;41.804;12.596;2023-05-10T06:38:39;16.10;99.90
37281;DHT22;23169;41.804;12.596;2023-05-10T06:41:08;16.10;99.90
37281;DHT22;23169;41.804;12.596;2023-05-10T06:43:37;16.00;99.90
37281;DHT22;23169;41.804;12.596;2023-05-10T06:46:09;16.00;99.90
37281;DHT22;23169;41.804;12.596;2023-05-10T06:48:39;16.00;99.90
37281;DHT22;23169;41.804;12.596;2023-05-10T06:51:07;16.10;99.90
37281;DHT22;23169;41.804;12.596;2023-05-10T06:53:36;16.10;99.90
37281;DHT22;23169;41.804;12.596;2023-05-10T06:56:05;16.10;99.90
37281;DHT22;23169;41.804;12.596;2023-05-10T06:58:34;16.20;99.90
37281;DHT22;23169;41.804;12.596;2023-05-10T07:01:03;16.30;99.90
37281;DHT22;23169;41.804;12.596;2023-05-10T07:03:33;16.30;99.90
37281;DHT22;23169;41.804;12.596;2023-05-10T07:06:02;16.40;99.90
37281;DHT22;23169;41.804;12.596;2023-05-10T07:08:34;16.40;99.90
37281;DHT22;23169;41.804;12.596;2023-05-10T07:11:04;16.40;99.90
37281;DHT22;23169;41.804;12.596;2023-05-10T07:13:35;16.40;99.90
37281;DHT22;23169;41.804;12.596;2023-05-10T07:16:04;16.50;99.90
37281;DHT22;23169;41.804;12.596;2023-05-10T07:18:35;16.40;99.90
37281;DHT22;23169;41.804;12.596;2023-05-10T07:21:04;16.40;99.90
37281;DHT22;23169;41.804;12.596;2023-05-10T07:23:33;16.40;99.90
37281;DHT22;23169;41.804;12.596;2023-05-10T07:26:02;16.40;99.90
37281;DHT22;23169;41.804;12.596;2023-05-10T07:28:32;16.40;99.90
37281;DHT22;23169;41.804;12.596;2023-05-10T07:31:01;16.40;99.90
37281;DHT22;23169;41.804;12.596;2023-05-10T07:33:31;16.40;99.90
37281;DHT22;23169;41.804;12.596;2023-05-10T07:36:01;16.40;99.90
37281;DHT22;23169;41.804;12.596;2023-05-10T07:38:31;16.30;99.90
37281;DHT22;23169;41.804;12.596;2023-05-10T07:40:59;16.30;99.90
37281;DHT22;23169;41.804;12.596;2023-05-10T07:43:31;16.30;99.90
37281;DHT22;23169;41.804;12.596;2023-05-10T07:46:00;16.30;99.90
37281;DHT22;23169;41.804;12.596;2023-05-10T07:48:34;16.30;99.90
37281;DHT22;23169;41.804;12.596;2023-05-10T07:51:03;16.30;99.90
37281;DHT22;23169;41.804;12.596;2023-05-10T07:53:33;16.30;99.90
37281;DHT22;23169;41.804;12.596;2023-05-10T07:56:29;16.30;99.90
37281;DHT22;23169;41.804;12.596;2023-05-10T07:59:01;16.30;99.90
37281;DHT22;23169;41.804;12.596;2023-05-10T08:01:33;16.40;99.90
37281;DHT22;23169;41.804;12.596;2023-05-10T08:04:03;16.50;99.90
37281;DHT22;23169;41.804;12.596;2023-05-10T08:09:01;16.70;99.90
37281;DHT22;23169;41.804;12.596;2023-05-10T08:11:30;16.70;99.90
37281;DHT22;23169;41.804;12.596;2023-05-10T08:13:58;16.70;99.90
37281;DHT22;23169;41.804;12.596;2023-05-10T08:16:28;16.70;99.90
37281;DHT22;23169;41.804;12.596;2023-05-10T08:18:58;16.70;99.90
37281;DHT22;23169;41.804;12.596;2023-05-10T08:21:27;16.60;99.90
37281;DHT22;23169;41.804;12.596;2023-05-10T08:23:55;16.70;99.90
37281;DHT22;23169;41.804;12.596;2023-05-10T08:26:24;16.90;99.90
37281;DHT22;23169;41.804;12.596;2023-05-10T08:28:53;17.00;99.90
37281;DHT22;23169;41.804;12.596;2023-05-10T08:31:22;17.10;99.90
37281;DHT22;23169;41.804;12.596;2023-05-10T08:33:50;17.20;99.90
37281;DHT22;23169;41.804;12.596;2023-05-10T08:36:21;17.40;99.90
37281;DHT22;23169;41.804;12.596;2023-05-10T08:38:52;17.50;99.90
37281;DHT22;23169;41.804;12.596;2023-05-10T08:41:21;17.50;99.90
37281;DHT22;23169;41.804;12.596;2023-05-10T08:43:53;17.60;99.90
37281;DHT22;23169;41.804;12.596;2023-05-10T08:46:22;17.60;94.40
37281;DHT22;23169;41.804;12.596;2023-05-10T08:48:51;17.70;97.20
37281;DHT22;23169;41.804;12.596;2023-05-10T08:51:25;17.70;88.70
37281;DHT22;23169;41.804;12.596;2023-05-10T08:53:58;17.80;90.10
37281;DHT22;23169;41.804;12.596;2023-05-10T08:56:29;17.80;94.60
37281;DHT22;23169;41.804;12.596;2023-05-10T08:58:57;17.70;66.70
37281;DHT22;23169;41.804;12.596;2023-05-10T09:01:26;17.60;78.50
37281;DHT22;23169;41.804;12.596;2023-05-10T09:03:55;17.70;69.10
37281;DHT22;23169;41.804;12.596;2023-05-10T09:06:24;17.60;56.50
37281;DHT22;23169;41.804;12.596;2023-05-10T09:08:53;17.60;59.40
37281;DHT22;23169;41.804;12.596;2023-05-10T09:11:22;17.60;55.30
37281;DHT22;23169;41.804;12.596;2023-05-10T09:13:52;17.50;53.80
37281;DHT22;23169;41.804;12.596;2023-05-10T09:16:21;17.50;62.70
37281;DHT22;23169;41.804;12.596;2023-05-10T09:18:50;17.30;45.80
37281;DHT22;23169;41.804;12.596;2023-05-10T09:21:19;17.40;62.30
37281;DHT22;23169;41.804;12.596;2023-05-10T09:23:49;17.40;47.40
37281;DHT22;23169;41.804;12.596;2023-05-10T09:26:22;17.40;53.70
37281;DHT22;23169;41.804;12.596;2023-05-10T09:28:56;17.40;47.80
37281;DHT22;23169;41.804;12.596;2023-05-10T09:31:45;17.60;47.30
37281;DHT22;23169;41.804;12.596;2023-05-10T09:34:20;17.60;40.90
37281;DHT22;23169;41.804;12.596;2023-05-10T09:36:56;17.90;51.30
37281;DHT22;23169;41.804;12.596;2023-05-10T09:39:37;18.00;41.30
37281;DHT22;23169;41.804;12.596;2023-05-10T09:42:08;17.90;31.60
37281;DHT22;23169;41.804;12.596;2023-05-10T09:44:38;17.90;35.40
37281;DHT22;23169;41.804;12.596;2023-05-10T09:47:09;18.10;27.50
37281;DHT22;23169;41.804;12.596;2023-05-10T09:49:41;18.30;40.30
37281;DHT22;23169;41.804;12.596;2023-05-10T09:52:11;18.70;45.40
37281;DHT22;23169;41.804;12.596;2023-05-10T09:54:51;18.80;29.60
37281;DHT22;23169;41.804;12.596;2023-05-10T09:57:21;19.00;30.50
37281;DHT22;23169;41.804;12.596;2023-05-10T09:59:52;19.10;28.10
37281;DHT22;23169;41.804;12.596;2023-05-10T10:02:28;18.80;19.50
37281;DHT22;23169;41.804;12.596;2023-05-10T10:04:57;18.60;20.40
37281;DHT22;23169;41.804;12.596;2023-05-10T10:07:26;18.50;18.20
37281;DHT22;23169;41.804;12.596;2023-05-10T10:09:55;18.40;21.60
37281;DHT22;23169;41.804;12.596;2023-05-10T10:12:25;18.40;24.90
37281;DHT22;23169;41.804;12.596;2023-05-10T10:14:53;18.40;24.20
37281;DHT22;23169;41.804;12.596;2023-05-10T10:17:25;18.40;25.10
37281;DHT22;23169;41.804;12.596;2023-05-10T10:19:57;18.60;25.70
37281;DHT22;23169;41.804;12.596;2023-05-10T10:22:25;18.50;19.70
37281;DHT22;23169;41.804;12.596;2023-05-10T10:24:54;18.40;19.60
37281;DHT22;23169;41.804;12.596;2023-05-10T10:33:06;18.50;26.60
37281;DHT22;23169;41.804;12.596;2023-05-10T10:35:39;18.40;25.20
37281;DHT22;23169;41.804;12.596;2023-05-10T10:38:09;18.50;25.00
37281;DHT22;23169;41.804;12.596;2023-05-10T10:40:37;18.50;23.90
37281;DHT22;23169;41.804;12.596;2023-05-10T10:43:25;18.50;24.80
37281;DHT22;23169;41.804;12.596;2023-05-10T10:46:16;18.50;23.10
37281;DHT22;23169;41.804;12.596;2023-05-10T10:49:08;18.40;23.10
37281;DHT22;23169;41.804;12.596;2023-05-10T10:51:38;18.50;21.00
37281;DHT22;23169;41.804;12.596;2023-05-10T10:54:10;18.60;20.50
37281;DHT22;23169;41.804;12.596;2023-05-10T10:56:44;18.40;16.50
37281;DHT22;23169;41.804;12.596;2023-05-10T10:59:13;18.30;20.70
37281;DHT22;23169;41.804;12.596;2023-05-10T11:01:54;18.30;23.90
37281;DHT22;23169;41.804;12.596;2023-05-10T11:04:24;18.10;17.40
37281;DHT22;23169;41.804;12.596;2023-05-10T11:07:16;18.10;18.80
37281;DHT22;23169;41.804;12.596;2023-05-10T11:09:47;18.00;19.70
37281;DHT22;23169;41.804;12.596;2023-05-10T11:12:15;18.80;22.40
37281;DHT22;23169;41.804;12.596;2023-05-10T11:14:50;18.30;25.00
37281;DHT22;23169;41.804;12.596;2023-05-10T11:17:26;18.30;19.60
37281;DHT22;23169;41.804;12.596;2023-05-10T11:20:19;18.20;18.80
37281;DHT22;23169;41.804;12.596;2023-05-10T11:22:53;18.40;18.40
37281;DHT22;23169;41.804;12.596;2023-05-10T11:25:28;18.60;18.40
37281;DHT22;23169;41.804;12.596;2023-05-10T11:27:57;18.50;15.60
37281;DHT22;23169;41.804;12.596;2023-05-10T11:30:27;18.30;15.50
37281;DHT22;23169;41.804;12.596;2023-05-10T11:32:55;18.30;18.20
37281;DHT22;23169;41.804;12.596;2023-05-10T11:35:27;18.50;19.20
37281;DHT22;23169;41.804;12.596;2023-05-10T11:37:55;18.80;16.90
37281;DHT22;23169;41.804;12.596;2023-05-10T11:40:24;18.30;11.00
37281;DHT22;23169;41.804;12.596;2023-05-10T11:42:55;18.50;15.50
37281;DHT22;23169;41.804;12.596;2023-05-10T11:45:25;18.30;12.00
37281;DHT22;23169;41.804;12.596;2023-05-10T11:47:54;18.00;12.70
37281;DHT22;23169;41.804;12.596;2023-05-10T11:50:22;18.00;13.90
37281;DHT22;23169;41.804;12.596;2023-05-10T11:52:52;17.90;13.50
37281;DHT22;23169;41.804;12.596;2023-05-10T11:55:21;17.90;15.70
37281;DHT22;23169;41.804;12.596;2023-05-10T11:57:54;18.00;17.00
37281;DHT22;23169;41.804;12.596;2023-05-10T12:00:23;17.60;20.60
37281;DHT22;23169;41.804;12.596;2023-05-10T12:05:25;17.10;30.00
37281;DHT22;23169;41.804;12.596;2023-05-10T12:08:11;17.00;42.80
37281;DHT22;23169;41.804;12.596;2023-05-10T12:10:42;16.90;42.90
37281;DHT22;23169;41.804;12.596;2023-05-10T12:13:12;17.00;37.50
37281;DHT22;23169;41.804;12.596;2023-05-10T12:15:43;17.10;34.40
37281;DHT22;23169;41.804;12.596;2023-05-10T12:18:13;17.30;37.60
37281;DHT22;23169;41.804;12.596;2023-05-10T12:20:43;17.30;33.30
37281;DHT22;23169;41.804;12.596;2023-05-10T12:23:14;17.40;28.40
37281;DHT22;23169;41.804;12.596;2023-05-10T12:25:42;17.60;28.30
37281;DHT22;23169;41.804;12.596;2023-05-10T12:28:14;17.80;28.60
37281;DHT22;23169;41.804;12.596;2023-05-10T12:30:44;18.00;33.40
37281;DHT22;23169;41.804;12.596;2023-05-10T12:33:13;17.90;22.00
37281;DHT22;23169;41.804;12.596;2023-05-10T12:35:51;18.10;23.70
37281;DHT22;23169;41.804;12.596;2023-05-10T12:38:33;18.00;20.60
37281;DHT22;23169;41.804;12.596;2023-05-10T12:41:04;18.00;21.00
37281;DHT22;23169;41.804;12.596;2023-05-10T12:43:34;17.90;19.20
37281;DHT22;23169;41.804;12.596;2023-05-10T12:48:37;18.10;21.10
37281;DHT22;23169;41.804;12.596;2023-05-10T12:51:07;18.10;21.20
37281;DHT22;23169;41.804;12.596;2023-05-10T12:53:40;18.20;21.00
37281;DHT22;23169;41.804;12.596;2023-05-10T12:56:09;18.20;21.60
37281;DHT22;23169;41.804;12.596;2023-05-10T12:58:39;18.30;21.70
37281;DHT22;23169;41.804;12.596;2023-05-10T13:01:08;18.40;20.20
37281;DHT22;23169;41.804;12.596;2023-05-10T13:03:37;18.30;19.10
37281;DHT22;23169;41.804;12.596;2023-05-10T13:06:06;18.20;17.30
37281;DHT22;23169;41.804;12.596;2023-05-10T13:08:38;18.20;18.50
37281;DHT22;23169;41.804;12.596;2023-05-10T13:11:07;18.70;14.50
37281;DHT22;23169;41.804;12.596;2023-05-10T13:13:36;18.30;18.50
37281;DHT22;23169;41.804;12.596;2023-05-10T13:16:05;18.30;17.30
37281;DHT22;23169;41.804;12.596;2023-05-10T13:18:34;18.40;17.90
37281;DHT22;23169;41.804;12.596;2023-05-10T13:21:03;18.40;15.60
37281;DHT22;23169;41.804;12.596;2023-05-10T13:23:34;18.60;15.30
37281;DHT22;23169;41.804;12.596;2023-05-10T13:26:03;18.80;15.10
37281;DHT22;23169;41.804;12.596;2023-05-10T13:28:33;19.10;13.90
37281;DHT22;23169;41.804;12.596;2023-05-10T13:31:01;18.90;10.00
37281;DHT22;23169;41.804;12.596;2023-05-10T13:33:30;18.90;12.40
37281;DHT22;23169;41.804;12.596;2023-05-10T13:35:58;18.80;10.80
37281;DHT22;23169;41.804;12.596;2023-05-10T13:38:28;19.00;11.00
37281;DHT22;23169;41.804;12.596;2023-05-10T13:40:56;18.80;10.70
37281;DHT22;23169;41.804;12.596;2023-05-10T13:43:25;18.90;11.00
37281;DHT22;23169;41.804;12.596;2023-05-10T13:45:54;18.70;9.40
37281;DHT22;23169;41.804;12.596;2023-05-10T13:48:22;18.80;10.00
37281;DHT22;23169;41.804;12.596;2023-05-10T13:50:51;19.30;9.00
37281;DHT22;23169;41.804;12.596;2023-05-10T13:53:20;19.50;8.60
37281;DHT22;23169;41.804;12.596;2023-05-10T13:55:49;19.50;6.80
37281;DHT22;23169;41.804;12.596;2023-05-10T13:58:19;20.20;5.00
37281;DHT22;23169;41.804;12.596;2023-05-10T14:00:47;20.50;2.90
37281;DHT22;23169;41.804;12.596;2023-05-10T14:03:16;20.10;1.00
37281;DHT22;23169;41.804;12.596;2023-05-10T14:05:45;20.00;1.00
37281;DHT22;23169;41.804;12.596;2023-05-10T14:08:13;19.90;1.00
37281;DHT22;23169;41.804;12.596;2023-05-10T14:10:42;20.50;1.00
37281;DHT22;23169;41.804;12.596;2023-05-10T14:13:11;21.20;1.00
37281;DHT22;23169;41.804;12.596;2023-05-10T14:15:41;20.90;1.00
37281;DHT22;23169;41.804;12.596;2023-05-10T14:18:09;20.40;1.00
37281;DHT22;23169;41.804;12.596;2023-05-10T14:20:38;20.10;1.00
37281;DHT22;23169;41.804;12.596;2023-05-10T14:23:07;19.80;1.00
37281;DHT22;23169;41.804;12.596;2023-05-10T14:25:36;19.60;1.00
37281;DHT22;23169;41.804;12.596;2023-05-10T14:28:05;19.10;1.00
37281;DHT22;23169;41.804;12.596;2023-05-10T14:30:34;18.90;2.60
37281;DHT22;23169;41.804;12.596;2023-05-10T14:33:02;19.00;3.40
37281;DHT22;23169;41.804;12.596;2023-05-10T14:35:31;18.90;1.00
37281;DHT22;23169;41.804;12.596;2023-05-10T14:38:01;19.30;1.00
37281;DHT22;23169;41.804;12.596;2023-05-10T14:40:30;19.20;1.00
37281;DHT22;23169;41.804;12.596;2023-05-10T14:45:29;19.30;1.00
37281;DHT22;23169;41.804;12.596;2023-05-10T14:47:58;19.40;1.00
37281;DHT22;23169;41.804;12.596;2023-05-10T14:50:28;19.10;1.00
37281;DHT22;23169;41.804;12.596;2023-05-10T14:52:58;19.10;1.10
37281;DHT22;23169;41.804;12.596;2023-05-10T14:55:30;19.10;2.10
37281;DHT22;23169;41.804;12.596;2023-05-10T14:57:58;19.10;4.50
37281;DHT22;23169;41.804;12.596;2023-05-10T15:00:29;18.80;6.60
37281;DHT22;23169;41.804;12.596;2023-05-10T15:02:58;18.70;4.90
37281;DHT22;23169;41.804;12.596;2023-05-10T15:05:26;18.70;4.70
37281;DHT22;23169;41.804;12.596;2023-05-10T15:07:57;18.60;7.20
37281;DHT22;23169;41.804;12.596;2023-05-10T15:10:25;18.60;6.20
37281;DHT22;23169;41.804;12.596;2023-05-10T15:12:54;18.50;11.60
37281;DHT22;23169;41.804;12.596;2023-05-10T15:15:22;18.40;9.10
37281;DHT22;23169;41.804;12.596;2023-05-10T15:17:51;18.40;10.60
37281;DHT22;23169;41.804;12.596;2023-05-10T15:20:20;18.40;10.90
37281;DHT22;23169;41.804;12.596;2023-05-10T15:22:48;19.40;18.30
37281;DHT22;23169;41.804;12.596;2023-05-10T15:25:17;16.90;54.40
37281;DHT22;23169;41.804;12.596;2023-05-10T15:27:47;17.40;49.90
37281;DHT22;23169;41.804;12.596;2023-05-10T15:30:16;17.30;59.20
37281;DHT22;23169;41.804;12.596;2023-05-10T15:32:46;17.20;68.90
37281;DHT22;23169;41.804;12.596;2023-05-10T15:37:47;17.20;69.00
37281;DHT22;23169;41.804;12.596;2023-05-10T15:40:16;17.30;72.80
37281;DHT22;23169;41.804;12.596;2023-05-10T15:42:45;17.40;77.20
37281;DHT22;23169;41.804;12.596;2023-05-10T15:45:15;17.40;71.00
37281;DHT22;23169;41.804;12.596;2023-05-10T15:47:44;17.40;70.80
37281;DHT22;23169;41.804;12.596;2023-05-10T15:50:14;17.40;71.30
37281;DHT22;23169;41.804;12.596;2023-05-10T15:52:44;17.50;72.80
37281;DHT22;23169;41.804;12.596;2023-05-10T15:55:13;17.40;62.80
37281;DHT22;23169;41.804;12.596;2023-05-10T15:57:43;17.40;72.40
37281;DHT22;23169;41.804;12.596;2023-05-10T16:00:12;17.20;74.50
37281;DHT22;23169;41.804;12.596;2023-05-10T16:02:41;17.10;85.70
37281;DHT22;23169;41.804;12.596;2023-05-10T16:05:09;17.10;94.20
37281;DHT22;23169;41.804;12.596;2023-05-10T16:07:39;17.10;96.00
37281;DHT22;23169;41.804;12.596;2023-05-10T16:10:10;17.20;94.80
37281;DHT22;23169;41.804;12.596;2023-05-10T16:12:39;17.50;94.00
37281;DHT22;23169;41.804;12.596;2023-05-10T16:15:08;17.80;92.40
37281;DHT22;23169;41.804;12.596;2023-05-10T16:17:37;18.10;79.90
37281;DHT22;23169;41.804;12.596;2023-05-10T16:20:06;18.00;69.40
37281;DHT22;23169;41.804;12.596;2023-05-10T16:22:34;18.00;62.70
37281;DHT22;23169;41.804;12.596;2023-05-10T16:25:03;17.90;66.40
37281;DHT22;23169;41.804;12.596;2023-05-10T16:27:33;18.10;71.60